createdAt,value
2022-07-26T00:00:58.542Z,0.80
2022-07-26T00:03:26.163Z,0.95
2022-07-26T00:05:53.798Z,0.60
2022-07-26T00:08:21.441Z,0.50
2022-07-26T00:10:56.767Z,0.50
2022-07-26T00:13:24.390Z,0.70
2022-07-26T00:15:55.566Z,0.80
2022-07-26T00:18:23.163Z,0.95
2022-07-26T00:20:50.831Z,0.93
2022-07-26T00:23:19.463Z,0.77
2022-07-26T00:25:47.042Z,1.00
2022-07-26T00:28:16.029Z,0.60
2022-07-26T00:30:43.623Z,0.82
2022-07-26T00:33:11.168Z,0.93
2022-07-26T00:35:38.765Z,0.98
2022-07-26T00:38:06.439Z,1.13
2022-07-26T00:40:35.422Z,0.95
2022-07-26T00:43:03.073Z,0.98
2022-07-26T00:45:32.124Z,0.70
2022-07-26T00:47:59.738Z,0.60
2022-07-26T00:50:27.333Z,0.90
2022-07-26T00:52:55.305Z,0.70
2022-07-26T00:55:22.864Z,0.80
2022-07-26T00:57:50.613Z,0.95
2022-07-26T01:00:19.226Z,1.00
2022-07-26T01:02:48.223Z,0.83
2022-07-26T01:05:15.903Z,0.60
2022-07-26T01:07:48.371Z,1.08
2022-07-26T01:10:16.258Z,1.00
2022-07-26T01:12:43.994Z,0.70
2022-07-26T01:15:12.032Z,0.85
2022-07-26T01:17:39.638Z,1.08
2022-07-26T01:20:09.245Z,0.93
2022-07-26T01:22:38.227Z,1.33
2022-07-26T01:25:06.302Z,1.35
2022-07-26T01:27:34.424Z,0.90
2022-07-26T01:30:02.084Z,0.73
2022-07-26T01:32:39.385Z,0.77
2022-07-26T01:35:07.747Z,1.27
2022-07-26T01:37:35.324Z,1.23
2022-07-26T01:40:04.782Z,0.95
2022-07-26T01:42:34.779Z,1.00
2022-07-26T01:45:02.410Z,1.23
2022-07-26T01:47:30.023Z,1.05
2022-07-26T01:49:57.697Z,0.88
2022-07-26T01:52:25.208Z,0.70
2022-07-26T01:54:52.816Z,0.80
2022-07-26T01:57:21.808Z,0.98
2022-07-26T01:59:49.368Z,1.10
2022-07-26T02:02:17.067Z,0.90
2022-07-26T02:04:59.891Z,0.90
2022-07-26T02:07:27.589Z,0.80
2022-07-26T02:09:56.288Z,1.13
2022-07-26T02:12:27.016Z,1.10
2022-07-26T02:14:54.618Z,1.05
2022-07-26T02:17:22.200Z,1.00
2022-07-26T02:19:50.239Z,1.20
2022-07-26T02:22:32.924Z,1.00
2022-07-26T02:25:04.744Z,1.10
2022-07-26T02:27:34.678Z,0.73
2022-07-26T02:30:02.244Z,1.42
2022-07-26T02:32:29.784Z,1.10
2022-07-26T02:34:57.455Z,0.80
2022-07-26T02:37:24.961Z,1.00
2022-07-26T02:39:52.752Z,1.10
2022-07-26T02:42:20.344Z,1.58
2022-07-26T02:44:49.239Z,1.25
2022-07-26T02:47:16.855Z,0.98
2022-07-26T02:49:44.534Z,2.60
2022-07-26T02:52:12.112Z,1.15
2022-07-26T02:54:39.716Z,1.48
2022-07-26T02:57:07.312Z,1.30
2022-07-26T02:59:34.863Z,1.52
2022-07-26T03:02:03.843Z,1.48
2022-07-26T03:04:31.436Z,1.27
2022-07-26T03:06:59.282Z,0.95
2022-07-26T03:09:26.888Z,1.27
2022-07-26T03:11:54.498Z,1.33
2022-07-26T03:14:22.103Z,1.58
2022-07-26T03:16:49.681Z,1.60
2022-07-26T03:19:18.677Z,1.30
2022-07-26T03:21:46.200Z,1.33
2022-07-26T03:24:14.075Z,1.40
2022-07-26T03:26:41.625Z,1.45
2022-07-26T03:29:09.272Z,1.42
2022-07-26T03:31:36.915Z,1.20
2022-07-26T03:34:04.849Z,1.30
2022-07-26T03:36:57.909Z,0.82
2022-07-26T03:39:27.037Z,1.30
2022-07-26T03:41:54.655Z,1.23
2022-07-26T03:44:22.219Z,1.40
2022-07-26T03:46:49.951Z,1.20
2022-07-26T03:49:17.657Z,1.30
2022-07-26T03:51:45.276Z,1.50
2022-07-26T03:54:12.955Z,1.40
2022-07-26T03:56:51.195Z,1.40
2022-07-26T03:59:20.217Z,1.40
2022-07-26T04:01:48.091Z,1.70
2022-07-26T04:04:17.804Z,1.40
2022-07-26T04:06:45.458Z,1.77
2022-07-26T04:09:13.045Z,1.60
2022-07-26T04:11:41.211Z,1.10
2022-07-26T04:14:09.302Z,1.20
2022-07-26T04:16:43.274Z,1.70
2022-07-26T04:19:11.439Z,1.48
2022-07-26T04:21:39.005Z,1.40
2022-07-26T04:24:07.198Z,1.30
2022-07-26T04:26:34.929Z,1.60
2022-07-26T04:29:02.530Z,2.03
2022-07-26T04:31:36.212Z,1.50
2022-07-26T04:34:05.872Z,1.52
2022-07-26T04:36:33.970Z,1.73
2022-07-26T04:39:01.566Z,1.45
2022-07-26T04:41:29.251Z,1.60
2022-07-26T04:43:58.033Z,1.58
2022-07-26T04:46:26.109Z,1.70
2022-07-26T04:48:53.852Z,1.60
2022-07-26T04:51:22.869Z,1.60
2022-07-26T04:53:50.938Z,1.80
2022-07-26T04:56:18.537Z,2.13
2022-07-26T04:58:52.078Z,2.10
2022-07-26T05:01:19.748Z,1.50
2022-07-26T05:03:47.444Z,1.92
2022-07-26T05:06:14.982Z,1.92
2022-07-26T05:08:44.109Z,1.75
2022-07-26T05:11:11.719Z,1.60
2022-07-26T05:13:39.375Z,2.55
2022-07-26T05:16:11.967Z,1.98
2022-07-26T05:18:45.528Z,1.90
2022-07-26T05:21:17.333Z,1.77
2022-07-26T05:23:46.348Z,1.67
2022-07-26T05:26:13.972Z,2.30
2022-07-26T05:28:41.793Z,2.35
2022-07-26T05:31:09.436Z,2.10
2022-07-26T05:33:37.114Z,2.22
2022-07-26T05:36:04.965Z,2.63
2022-07-26T05:38:32.548Z,2.42
2022-07-26T05:41:01.585Z,2.78
2022-07-26T05:43:41.304Z,2.17
2022-07-26T05:46:10.170Z,2.60
2022-07-26T05:48:37.913Z,2.50
2022-07-26T05:51:05.645Z,2.53
2022-07-26T05:53:33.214Z,2.20
2022-07-26T05:56:02.441Z,2.45
2022-07-26T05:58:30.070Z,2.67
2022-07-26T06:00:57.764Z,1.92
2022-07-26T06:03:25.894Z,2.83
2022-07-26T06:05:54.126Z,2.35
2022-07-26T06:08:21.904Z,2.95
2022-07-26T06:10:49.645Z,2.28
2022-07-26T06:13:18.832Z,2.60
2022-07-26T06:15:46.550Z,2.53
2022-07-26T06:18:14.202Z,2.58
2022-07-26T06:20:41.773Z,3.33
2022-07-26T06:23:09.455Z,3.13
2022-07-26T06:25:37.035Z,2.92
2022-07-26T06:28:04.769Z,2.72
2022-07-26T06:30:33.717Z,3.22
2022-07-26T06:33:01.309Z,3.00
2022-07-26T06:35:30.909Z,3.08
2022-07-26T06:37:58.644Z,2.92
2022-07-26T06:40:26.611Z,3.28
2022-07-26T06:42:54.333Z,4.03
2022-07-26T06:45:22.080Z,4.30
2022-07-26T06:47:51.125Z,4.40
2022-07-26T06:50:20.767Z,3.90
2022-07-26T06:52:53.347Z,4.60
2022-07-26T06:55:21.125Z,3.97
2022-07-26T06:57:50.329Z,4.03
2022-07-26T07:00:18.945Z,3.97
2022-07-26T07:02:52.311Z,4.22
2022-07-26T07:05:20.168Z,4.00
2022-07-26T07:07:47.853Z,3.92
2022-07-26T07:10:15.733Z,4.03
2022-07-26T07:12:44.795Z,4.45
2022-07-26T07:15:12.543Z,4.20
2022-07-26T07:17:40.235Z,4.13
2022-07-26T07:20:09.643Z,4.28
2022-07-26T07:22:37.315Z,4.53
2022-07-26T07:25:06.245Z,3.78
2022-07-26T07:27:34.271Z,3.70
2022-07-26T07:30:02.243Z,3.75
2022-07-26T07:32:32.228Z,4.05
2022-07-26T07:34:59.922Z,3.80
2022-07-26T07:37:28.989Z,3.65
2022-07-26T07:40:16.857Z,3.78
2022-07-26T07:42:45.178Z,3.63
2022-07-26T07:45:12.932Z,3.60
2022-07-26T07:47:40.660Z,3.47
2022-07-26T07:50:08.829Z,3.28
2022-07-26T07:52:38.273Z,3.70
2022-07-26T07:55:37.025Z,3.17
2022-07-26T07:57:56.620Z,3.97
2022-07-26T08:00:27.477Z,4.50
2022-07-26T08:02:55.275Z,4.68
2022-07-26T08:05:22.878Z,5.07
2022-07-26T08:07:52.563Z,4.53
2022-07-26T08:10:20.394Z,4.93
2022-07-26T08:12:51.434Z,5.45
2022-07-26T08:15:19.626Z,5.63
2022-07-26T08:17:53.898Z,6.45
2022-07-26T08:20:23.719Z,6.45
2022-07-26T08:22:54.187Z,6.18
2022-07-26T08:25:56.392Z,6.70
2022-07-26T08:28:46.269Z,6.78
2022-07-26T08:31:17.165Z,7.60
2022-07-26T08:33:46.355Z,6.40
2022-07-26T08:36:14.833Z,7.18
2022-07-26T08:38:44.167Z,7.00
2022-07-26T08:41:11.949Z,8.02
2022-07-26T08:43:52.279Z,6.70
2022-07-26T08:46:38.016Z,8.18
2022-07-26T08:49:06.117Z,7.45
2022-07-26T08:51:36.550Z,7.97
2022-07-26T08:54:06.334Z,9.30
2022-07-26T08:56:34.713Z,7.93
2022-07-26T08:59:04.100Z,8.13
2022-07-26T09:03:59.298Z,7.75
2022-07-26T09:06:28.536Z,9.32
2022-07-26T09:08:56.210Z,8.65
2022-07-26T09:11:32.206Z,8.10
2022-07-26T09:14:00.882Z,8.10
2022-07-26T09:16:28.922Z,9.05
2022-07-26T09:18:57.231Z,9.20
2022-07-26T09:21:28.907Z,8.70
2022-07-26T09:23:56.753Z,9.88
2022-07-26T09:29:04.893Z,9.95
2022-07-26T09:31:32.772Z,9.73
2022-07-26T09:34:00.477Z,10.18
2022-07-26T09:36:28.500Z,9.90
2022-07-26T09:38:58.230Z,9.15
2022-07-26T09:41:26.703Z,7.00
2022-07-26T09:43:55.392Z,7.63
2022-07-26T09:46:26.176Z,7.30
2022-07-26T09:49:12.478Z,7.80
2022-07-26T09:51:41.150Z,6.50
2022-07-26T09:54:09.330Z,6.40
2022-07-26T09:56:46.968Z,7.22
2022-07-26T09:59:15.036Z,6.40
2022-07-26T10:01:44.170Z,6.78
2022-07-26T10:04:12.289Z,5.63
2022-07-26T10:06:40.071Z,5.10
2022-07-26T10:09:18.429Z,5.72
2022-07-26T10:11:47.224Z,5.43
2022-07-26T10:14:33.383Z,5.90
2022-07-26T10:17:02.812Z,6.00
2022-07-26T10:19:45.611Z,5.32
2022-07-26T10:22:24.353Z,5.70
2022-07-26T10:24:57.385Z,5.47
2022-07-26T10:27:43.562Z,5.30
2022-07-26T10:30:23.588Z,4.20
2022-07-26T10:33:00.130Z,4.28
2022-07-26T10:35:31.694Z,3.85
2022-07-26T10:37:59.888Z,3.10
2022-07-26T10:40:30.332Z,2.72
2022-07-26T10:43:30.234Z,3.15
2022-07-26T10:46:10.463Z,3.08
2022-07-26T10:48:39.641Z,2.63
2022-07-26T10:51:07.386Z,2.80
2022-07-26T10:53:35.324Z,2.30
2022-07-26T10:56:03.181Z,2.70
2022-07-26T10:58:38.701Z,2.88
2022-07-26T11:01:06.566Z,2.95
2022-07-26T11:03:39.211Z,2.28
2022-07-26T11:06:10.735Z,2.60
2022-07-26T11:08:38.446Z,2.15
2022-07-26T11:11:06.352Z,2.97
2022-07-26T11:13:34.099Z,2.90
2022-07-26T11:16:02.807Z,2.25
2022-07-26T11:18:32.534Z,2.25
2022-07-26T11:23:33.083Z,2.00
2022-07-26T11:26:10.589Z,2.20
2022-07-26T11:28:45.258Z,2.47
2022-07-26T11:31:51.965Z,2.50
2022-07-26T11:34:20.883Z,1.67
2022-07-26T11:36:48.669Z,2.60
2022-07-26T11:39:21.416Z,2.80
2022-07-26T11:41:49.157Z,2.42
2022-07-26T11:44:16.946Z,3.15
2022-07-26T11:46:47.618Z,2.92
2022-07-26T11:49:16.424Z,3.60
2022-07-26T11:51:52.794Z,2.95
2022-07-26T11:54:21.909Z,2.90
2022-07-26T11:56:53.060Z,2.70
2022-07-26T11:59:20.792Z,3.05
2022-07-26T12:01:49.506Z,3.63
2022-07-26T12:06:45.639Z,4.05
2022-07-26T12:09:13.366Z,3.65
2022-07-26T12:11:55.849Z,4.85
2022-07-26T12:14:26.006Z,4.28
2022-07-26T12:16:53.668Z,3.45
2022-07-26T12:19:25.527Z,3.50
2022-07-26T12:21:54.297Z,3.05
2022-07-26T12:24:39.046Z,3.83
2022-07-26T12:27:08.752Z,2.90
2022-07-26T12:29:37.283Z,3.10
2022-07-26T12:32:30.348Z,2.42
2022-07-26T12:34:58.869Z,3.20
2022-07-26T12:37:37.651Z,3.07
2022-07-26T12:40:08.975Z,2.83
2022-07-26T12:42:38.769Z,2.63
2022-07-26T12:45:08.515Z,2.33
2022-07-26T12:47:36.244Z,1.67
2022-07-26T12:50:04.383Z,1.35
2022-07-26T12:52:52.823Z,1.65
2022-07-26T12:55:21.568Z,1.63
2022-07-26T12:57:50.653Z,2.05
2022-07-26T13:00:23.600Z,1.95
2022-07-26T13:02:51.426Z,2.10
2022-07-26T13:05:19.333Z,1.77
2022-07-26T13:07:47.108Z,1.88
2022-07-26T13:10:32.676Z,1.77
2022-07-26T13:13:07.211Z,1.90
2022-07-26T13:15:37.662Z,2.10
2022-07-26T13:18:06.639Z,1.88
2022-07-26T13:20:34.333Z,1.98
2022-07-26T13:23:02.726Z,1.65
2022-07-26T13:25:38.702Z,1.90
2022-07-26T13:28:09.645Z,1.80
2022-07-26T13:30:37.681Z,1.58
2022-07-26T13:33:05.618Z,2.20
2022-07-26T13:35:33.442Z,1.45
2022-07-26T13:38:01.290Z,1.25
2022-07-26T13:40:31.454Z,1.50
2022-07-26T13:42:59.831Z,1.70
2022-07-26T13:45:29.883Z,1.70
2022-07-26T13:47:57.786Z,1.52
2022-07-26T13:50:27.132Z,1.50
2022-07-26T13:52:55.146Z,1.75
2022-07-26T13:55:22.923Z,1.63
2022-07-26T13:57:57.218Z,1.50
2022-07-26T14:00:25.647Z,1.50
2022-07-26T14:02:54.756Z,1.88
2022-07-26T14:05:22.640Z,1.40
2022-07-26T14:07:50.319Z,1.52
2022-07-26T14:10:18.166Z,1.40
2022-07-26T14:12:45.737Z,1.30
2022-07-26T14:15:19.539Z,1.52
2022-07-26T14:17:49.649Z,1.23
2022-07-26T14:20:18.655Z,1.52
2022-07-26T14:22:46.349Z,1.20
2022-07-26T14:25:14.528Z,1.27
2022-07-26T14:27:42.250Z,1.40
2022-07-26T14:30:10.609Z,1.63
2022-07-26T14:32:38.388Z,1.52
2022-07-26T14:35:31.134Z,2.03
2022-07-26T14:38:00.199Z,1.63
2022-07-26T14:42:55.400Z,1.75
2022-07-26T14:45:22.994Z,1.80
2022-07-26T14:47:50.600Z,1.52
2022-07-26T14:50:18.305Z,1.52
2022-07-26T14:52:46.696Z,1.65
2022-07-26T14:55:17.392Z,1.83
2022-07-26T14:57:58.492Z,1.40
2022-07-26T15:00:26.340Z,1.80
2022-07-26T15:02:54.124Z,1.80
2022-07-26T15:05:23.269Z,1.13
2022-07-26T15:07:51.011Z,1.10
2022-07-26T15:10:29.093Z,1.17
2022-07-26T15:12:56.922Z,1.10
2022-07-26T15:15:24.776Z,1.20
2022-07-26T15:17:52.592Z,0.80
2022-07-26T15:20:26.538Z,1.00
2022-07-26T15:22:55.455Z,1.25
2022-07-26T15:25:24.525Z,0.90
2022-07-26T15:27:52.274Z,1.08
2022-07-26T15:30:20.380Z,1.17
2022-07-26T15:32:52.779Z,1.08
2022-07-26T15:35:20.429Z,1.30
2022-07-26T15:37:48.763Z,0.80
2022-07-26T15:40:16.416Z,0.80
2022-07-26T15:42:46.467Z,0.70
2022-07-26T15:45:14.138Z,0.70
2022-07-26T15:48:08.119Z,1.17
2022-07-26T15:50:29.704Z,0.98
2022-07-26T15:52:57.379Z,0.88
2022-07-26T15:55:25.394Z,0.90
2022-07-26T16:00:28.959Z,1.00
2022-07-26T16:02:56.677Z,0.88
2022-07-26T16:05:24.893Z,0.93
2022-07-26T16:07:52.638Z,1.10
2022-07-26T16:10:20.399Z,1.10
2022-07-26T16:12:48.066Z,0.80
2022-07-26T16:15:19.309Z,0.68
2022-07-26T16:17:48.668Z,1.10
2022-07-26T16:20:20.274Z,1.00
2022-07-26T16:22:48.025Z,0.70
2022-07-26T16:25:16.097Z,0.63
2022-07-26T16:27:43.843Z,0.80
2022-07-26T16:30:12.145Z,0.90
2022-07-26T16:32:39.816Z,0.90
2022-07-26T16:35:09.508Z,1.20
2022-07-26T16:37:37.148Z,1.08
2022-07-26T16:40:05.737Z,1.10
2022-07-26T16:42:33.436Z,0.90
2022-07-26T16:45:01.224Z,0.70
2022-07-26T16:47:29.010Z,0.68
2022-07-26T16:49:56.796Z,0.73
2022-07-26T16:52:25.754Z,0.73
2022-07-26T16:54:53.493Z,0.93
2022-07-26T16:57:21.102Z,0.70
2022-07-26T17:00:15.783Z,0.75
2022-07-26T17:02:43.659Z,0.50
2022-07-26T17:05:11.413Z,0.60
2022-07-26T17:07:40.450Z,0.68
2022-07-26T17:10:09.137Z,0.57
2022-07-26T17:12:37.166Z,0.60
2022-07-26T17:15:05.029Z,0.90
2022-07-26T17:17:32.950Z,0.50
2022-07-26T17:20:00.768Z,0.40
2022-07-26T17:22:28.430Z,0.52
2022-07-26T17:24:57.431Z,0.38
2022-07-26T17:27:25.166Z,0.60
2022-07-26T17:29:53.085Z,0.40
2022-07-26T17:32:20.713Z,0.68
2022-07-26T17:34:48.310Z,0.50
2022-07-26T17:37:15.998Z,0.60
2022-07-26T17:39:52.483Z,0.88
2022-07-26T17:42:22.804Z,0.70
2022-07-26T17:44:50.439Z,0.50
2022-07-26T17:47:29.089Z,0.60
2022-07-26T17:50:35.882Z,0.60
2022-07-26T17:53:04.394Z,0.90
2022-07-26T17:55:32.070Z,0.60
2022-07-26T17:58:01.080Z,0.60
2022-07-26T18:00:29.468Z,0.60
2022-07-26T18:02:59.084Z,0.70
2022-07-26T18:05:33.343Z,0.50
2022-07-26T18:08:01.906Z,0.68
2022-07-26T18:10:29.613Z,0.70
2022-07-26T18:12:57.247Z,0.60
2022-07-26T18:15:26.303Z,0.88
2022-07-26T18:17:54.094Z,0.70
2022-07-26T18:20:21.650Z,0.70
2022-07-26T18:22:52.033Z,0.80
2022-07-26T18:25:19.656Z,0.82
2022-07-26T18:27:47.419Z,0.98
2022-07-26T18:30:15.020Z,0.80
2022-07-26T18:32:44.009Z,0.85
2022-07-26T18:35:11.605Z,0.80
2022-07-26T18:37:39.174Z,0.80
2022-07-26T18:40:07.751Z,0.98
2022-07-26T18:42:36.157Z,0.53
2022-07-26T18:45:03.781Z,0.52
2022-07-26T18:47:31.567Z,0.60
2022-07-26T18:50:00.564Z,1.08
2022-07-26T18:52:32.584Z,0.65
2022-07-26T18:55:01.803Z,0.60
2022-07-26T18:57:29.453Z,0.60
2022-07-26T18:59:57.104Z,0.70
2022-07-26T19:02:24.853Z,0.55
2022-07-26T19:04:52.496Z,0.85
2022-07-26T19:07:21.587Z,0.68
2022-07-26T19:09:49.243Z,0.70
2022-07-26T19:12:16.842Z,0.60
2022-07-26T19:14:44.475Z,0.70
2022-07-26T19:17:12.134Z,0.70
2022-07-26T19:19:39.748Z,0.90
2022-07-26T19:22:07.449Z,0.77
2022-07-26T19:24:48.432Z,1.27
2022-07-26T19:27:16.054Z,1.35
2022-07-26T19:29:43.653Z,1.35
2022-07-26T19:32:11.377Z,0.85
2022-07-26T19:34:38.975Z,0.95
2022-07-26T19:37:06.808Z,1.15
2022-07-26T19:39:34.517Z,0.70
2022-07-26T19:42:03.532Z,0.95
2022-07-26T19:44:31.115Z,0.63
2022-07-26T19:46:58.902Z,0.90
2022-07-26T19:49:26.575Z,1.00
2022-07-26T19:51:54.229Z,0.65
2022-07-26T19:54:22.868Z,1.15
2022-07-26T19:56:50.500Z,0.70
2022-07-26T19:59:23.508Z,0.95
2022-07-26T20:01:52.847Z,1.10
2022-07-26T20:04:20.682Z,0.95
2022-07-26T20:06:48.369Z,1.10
2022-07-26T20:09:15.962Z,0.80
2022-07-26T20:11:50.472Z,0.82
2022-07-26T20:14:19.583Z,0.93
2022-07-26T20:16:47.248Z,0.63
2022-07-26T20:19:14.896Z,0.70
2022-07-26T20:21:42.450Z,1.20
2022-07-26T20:24:10.523Z,1.00
2022-07-26T20:27:02.898Z,0.80
2022-07-26T20:29:32.027Z,1.10
2022-07-26T20:31:59.645Z,1.05
2022-07-26T20:34:27.293Z,1.13
2022-07-26T20:36:54.953Z,1.08
2022-07-26T20:39:22.792Z,1.00
2022-07-26T20:41:50.534Z,1.13
2022-07-26T20:44:19.966Z,1.33
2022-07-26T20:47:38.729Z,0.90
2022-07-26T20:50:08.623Z,1.13
2022-07-26T20:52:36.260Z,1.25
2022-07-26T20:55:04.064Z,1.35
2022-07-26T20:57:31.660Z,1.00
2022-07-26T20:59:59.329Z,1.00
2022-07-26T21:02:27.091Z,1.50
2022-07-26T21:04:55.173Z,1.00
2022-07-26T21:07:24.289Z,1.05
2022-07-26T21:10:12.057Z,1.10
2022-07-26T21:12:39.673Z,1.10
2022-07-26T21:15:07.762Z,1.30
2022-07-26T21:17:35.400Z,1.40
2022-07-26T21:20:03.119Z,1.85
2022-07-26T21:22:32.182Z,1.25
2022-07-26T21:24:59.911Z,1.30
2022-07-26T21:27:27.591Z,1.48
2022-07-26T21:29:55.203Z,1.30
2022-07-26T21:32:23.036Z,1.33
2022-07-26T21:34:50.699Z,1.10
2022-07-26T21:37:18.495Z,1.40
2022-07-26T21:39:47.581Z,1.23
2022-07-26T21:42:17.395Z,1.55
2022-07-26T21:44:47.534Z,1.50
2022-07-26T21:47:16.147Z,0.98
2022-07-26T21:49:43.873Z,1.17
2022-07-26T21:52:11.827Z,1.48
2022-07-26T21:54:39.519Z,1.55
2022-07-26T21:57:08.507Z,1.40
2022-07-26T21:59:36.195Z,1.40
2022-07-26T22:02:04.018Z,1.50
2022-07-26T22:04:31.870Z,1.35
2022-07-26T22:06:59.617Z,1.33
2022-07-26T22:09:27.259Z,1.50
2022-07-26T22:11:54.961Z,1.27
2022-07-26T22:14:24.278Z,1.35
2022-07-26T22:16:52.004Z,0.98
2022-07-26T22:19:19.977Z,1.30
2022-07-26T22:21:47.546Z,1.42
2022-07-26T22:24:15.158Z,1.10
2022-07-26T22:26:42.887Z,0.95
2022-07-26T22:29:11.143Z,1.10
2022-07-26T22:31:40.382Z,2.08
2022-07-26T22:34:08.057Z,1.38
2022-07-26T22:36:35.791Z,1.30
2022-07-26T22:39:03.447Z,1.40
2022-07-26T22:41:31.901Z,1.00
2022-07-26T22:44:00.369Z,1.35
2022-07-26T22:46:29.390Z,1.10
2022-07-26T22:48:58.781Z,1.67
2022-07-26T22:51:31.341Z,1.20
2022-07-26T22:53:58.970Z,1.20
2022-07-26T22:56:26.625Z,1.50
2022-07-26T22:58:54.234Z,1.40
2022-07-26T23:01:22.537Z,1.60
2022-07-26T23:03:50.553Z,1.00
2022-07-26T23:06:32.057Z,1.05
2022-07-26T23:09:00.151Z,1.00
2022-07-26T23:11:27.726Z,1.05
2022-07-26T23:13:59.046Z,1.48
2022-07-26T23:16:26.947Z,0.90
2022-07-26T23:18:54.577Z,0.82
2022-07-26T23:21:23.586Z,0.90
2022-07-26T23:23:51.227Z,1.08
2022-07-26T23:26:26.366Z,0.98
2022-07-26T23:28:54.081Z,0.93
2022-07-26T23:31:21.745Z,0.88
2022-07-26T23:33:51.857Z,1.10
2022-07-26T23:36:21.628Z,0.90
2022-07-26T23:38:50.550Z,0.80
2022-07-26T23:41:18.918Z,0.65
2022-07-26T23:43:46.586Z,0.80
2022-07-26T23:46:14.280Z,1.00
2022-07-26T23:48:41.954Z,0.90
2022-07-26T23:51:09.809Z,0.70
2022-07-26T23:53:37.470Z,1.00
2022-07-26T23:56:06.759Z,0.88
2022-07-26T23:58:34.328Z,0.70
